createdAt,value
2019-05-26T00:01:57.732Z,10.00
2019-05-26T00:04:26.354Z,10.00
2019-05-26T00:06:54.958Z,10.00
2019-05-26T00:09:23.606Z,9.90
2019-05-26T00:11:52.294Z,9.90
2019-05-26T00:14:20.886Z,9.90
2019-05-26T00:16:49.483Z,9.90
2019-05-26T00:19:18.066Z,9.90
2019-05-26T00:21:46.685Z,9.90
2019-05-26T00:24:16.173Z,9.90
2019-05-26T00:26:45.110Z,9.90
2019-05-26T00:29:13.672Z,9.90
2019-05-26T00:31:42.304Z,9.90
2019-05-26T00:34:10.968Z,9.90
2019-05-26T00:36:39.593Z,9.90
2019-05-26T00:39:08.601Z,10.00
2019-05-26T00:41:37.493Z,10.00
2019-05-26T00:44:06.264Z,10.00
2019-05-26T00:46:35.001Z,10.10
2019-05-26T00:49:03.792Z,10.10
2019-05-26T00:51:32.636Z,10.10
2019-05-26T00:54:01.569Z,10.10
2019-05-26T00:56:30.153Z,10.20
2019-05-26T00:58:58.840Z,10.20
2019-05-26T01:01:27.432Z,10.20
2019-05-26T01:03:56.063Z,10.20
2019-05-26T01:06:24.697Z,10.20
2019-05-26T01:08:53.390Z,10.20
2019-05-26T01:11:21.985Z,10.20
2019-05-26T01:13:50.918Z,10.20
2019-05-26T01:16:19.498Z,10.20
2019-05-26T01:18:48.079Z,10.20
2019-05-26T01:21:16.768Z,10.20
2019-05-26T01:23:45.632Z,10.20
2019-05-26T01:26:14.252Z,10.20
2019-05-26T01:28:42.885Z,10.10
2019-05-26T01:31:11.796Z,10.10
2019-05-26T01:33:40.488Z,10.10
2019-05-26T01:36:09.173Z,10.10
2019-05-26T01:38:38.935Z,10.00
2019-05-26T01:41:07.575Z,10.00
2019-05-26T01:43:36.146Z,10.00
2019-05-26T01:46:04.864Z,10.00
2019-05-26T01:48:33.502Z,10.00
2019-05-26T01:51:02.409Z,10.00
2019-05-26T01:53:31.301Z,9.90
2019-05-26T01:55:59.874Z,9.90
2019-05-26T01:58:28.496Z,9.90
2019-05-26T02:00:57.140Z,9.90
2019-05-26T02:03:26.333Z,9.80
2019-05-26T02:05:55.197Z,9.80
2019-05-26T02:08:38.279Z,9.80
2019-05-26T02:10:54.046Z,9.80
2019-05-26T02:13:22.669Z,9.80
2019-05-26T02:15:51.316Z,9.80
2019-05-26T02:18:20.002Z,9.70
2019-05-26T02:20:48.568Z,9.80
2019-05-26T02:23:17.189Z,9.70
2019-05-26T02:25:45.772Z,9.70
2019-05-26T02:28:14.345Z,9.70
2019-05-26T02:30:42.967Z,9.70
2019-05-26T02:33:11.542Z,9.70
2019-05-26T02:35:40.538Z,9.70
2019-05-26T02:38:09.110Z,9.70
2019-05-26T02:40:37.753Z,9.70
2019-05-26T02:43:06.435Z,9.80
2019-05-26T02:45:35.152Z,9.70
2019-05-26T02:48:04.270Z,9.70
2019-05-26T02:50:32.911Z,9.80
2019-05-26T02:53:01.733Z,9.80
2019-05-26T02:55:30.354Z,9.80
2019-05-26T02:57:59.010Z,9.80
2019-05-26T03:00:42.246Z,9.80
2019-05-26T03:03:12.065Z,9.70
2019-05-26T03:05:43.185Z,9.70
2019-05-26T03:08:12.954Z,9.70
2019-05-26T03:10:41.873Z,9.70
2019-05-26T03:13:13.625Z,9.70
2019-05-26T03:15:44.407Z,9.70
2019-05-26T03:18:13.159Z,9.70
2019-05-26T03:20:42.296Z,9.70
2019-05-26T03:23:11.535Z,9.80
2019-05-26T03:25:41.091Z,9.80
2019-05-26T03:28:09.738Z,9.80
2019-05-26T03:30:38.602Z,9.80
2019-05-26T03:33:07.181Z,9.90
2019-05-26T03:35:36.121Z,9.80
2019-05-26T03:38:04.892Z,9.90
2019-05-26T03:40:33.468Z,9.90
2019-05-26T03:43:02.116Z,10.00
2019-05-26T03:45:43.210Z,10.00
2019-05-26T03:48:11.971Z,10.00
2019-05-26T03:50:40.591Z,10.00
2019-05-26T03:53:09.486Z,10.00
2019-05-26T03:55:38.373Z,10.00
2019-05-26T03:58:06.972Z,10.00
2019-05-26T04:00:35.584Z,10.00
2019-05-26T04:03:04.275Z,10.10
2019-05-26T04:05:32.859Z,10.10
2019-05-26T04:08:05.083Z,10.20
2019-05-26T04:10:31.713Z,10.20
2019-05-26T04:13:00.336Z,10.20
2019-05-26T04:15:29.057Z,10.20
2019-05-26T04:17:57.965Z,10.30
2019-05-26T04:20:26.699Z,10.30
2019-05-26T04:22:55.317Z,10.30
2019-05-26T04:25:23.906Z,10.40
2019-05-26T04:27:52.523Z,10.50
2019-05-26T04:30:21.149Z,10.50
2019-05-26T04:32:49.730Z,10.70
2019-05-26T04:35:18.423Z,10.80
2019-05-26T04:37:47.111Z,10.90
2019-05-26T04:40:26.660Z,11.00
2019-05-26T04:42:46.026Z,11.10
2019-05-26T04:45:14.685Z,11.20
2019-05-26T04:47:43.296Z,11.20
2019-05-26T04:50:12.335Z,11.30
2019-05-26T04:52:40.926Z,11.40
2019-05-26T04:55:10.551Z,11.50
2019-05-26T04:57:39.181Z,11.60
2019-05-26T05:00:08.491Z,11.80
2019-05-26T05:02:37.278Z,11.90
2019-05-26T05:05:06.785Z,12.00
2019-05-26T05:07:35.481Z,12.10
2019-05-26T05:10:05.872Z,12.20
2019-05-26T05:12:34.730Z,12.30
2019-05-26T05:15:05.382Z,12.40
2019-05-26T05:17:33.979Z,12.50
2019-05-26T05:20:02.725Z,12.50
2019-05-26T05:22:31.414Z,12.50
2019-05-26T05:25:00.134Z,12.50
2019-05-26T05:27:29.047Z,12.40
2019-05-26T05:29:58.581Z,12.40
2019-05-26T05:32:27.204Z,12.50
2019-05-26T05:34:55.834Z,12.50
2019-05-26T05:37:25.259Z,12.50
2019-05-26T05:39:54.330Z,12.50
2019-05-26T05:42:23.218Z,12.50
2019-05-26T05:44:51.840Z,12.50
2019-05-26T05:47:20.423Z,12.40
2019-05-26T05:49:49.046Z,12.40
2019-05-26T05:52:17.628Z,12.30
2019-05-26T05:54:46.239Z,12.40
2019-05-26T05:57:14.833Z,12.30
2019-05-26T05:59:43.445Z,12.30
2019-05-26T06:02:12.037Z,12.30
2019-05-26T06:04:40.930Z,12.40
2019-05-26T06:07:09.513Z,12.40
2019-05-26T06:09:38.156Z,12.40
2019-05-26T06:12:07.140Z,12.50
2019-05-26T06:14:35.725Z,12.60
2019-05-26T06:17:04.544Z,12.70
2019-05-26T06:19:33.468Z,12.90
2019-05-26T06:22:02.097Z,13.20
2019-05-26T06:24:31.885Z,13.30
2019-05-26T06:27:01.638Z,13.40
2019-05-26T06:29:30.278Z,13.50
2019-05-26T06:31:59.277Z,13.50
2019-05-26T06:34:28.213Z,13.50
2019-05-26T06:36:56.913Z,13.50
2019-05-26T06:39:25.543Z,13.60
2019-05-26T06:41:55.115Z,13.60
2019-05-26T06:44:24.251Z,13.50
2019-05-26T06:46:53.245Z,13.60
2019-05-26T06:49:22.384Z,13.60
2019-05-26T06:51:51.110Z,13.70
2019-05-26T06:54:19.684Z,13.80
2019-05-26T06:56:48.301Z,14.00
2019-05-26T06:59:16.927Z,14.10
2019-05-26T07:01:45.581Z,14.20
2019-05-26T07:04:14.239Z,14.40
2019-05-26T07:06:42.919Z,14.40
2019-05-26T07:09:11.695Z,14.50
2019-05-26T07:11:53.917Z,14.50
2019-05-26T07:14:10.553Z,14.60
2019-05-26T07:16:39.244Z,14.80
2019-05-26T07:19:08.245Z,14.90
2019-05-26T07:21:36.873Z,14.90
2019-05-26T07:24:05.520Z,14.90
2019-05-26T07:26:34.217Z,15.10
2019-05-26T07:29:02.917Z,15.20
2019-05-26T07:31:32.017Z,15.20
2019-05-26T07:34:00.896Z,15.20
2019-05-26T07:36:29.762Z,15.20
2019-05-26T07:38:58.653Z,15.30
2019-05-26T07:41:27.585Z,15.40
2019-05-26T07:43:56.733Z,15.40
2019-05-26T07:46:25.305Z,15.30
2019-05-26T07:48:54.172Z,15.30
2019-05-26T07:51:23.456Z,15.20
2019-05-26T07:53:55.461Z,15.20
2019-05-26T07:56:22.521Z,15.20
2019-05-26T07:58:51.208Z,15.10
2019-05-26T08:01:24.189Z,15.20
2019-05-26T08:03:50.710Z,15.30
2019-05-26T08:06:19.886Z,15.30
2019-05-26T08:08:48.889Z,15.20
2019-05-26T08:11:17.913Z,15.20
2019-05-26T08:13:46.949Z,15.20
2019-05-26T08:16:16.009Z,15.20
2019-05-26T08:18:44.759Z,15.30
2019-05-26T08:21:13.817Z,15.40
2019-05-26T08:23:42.813Z,15.50
2019-05-26T08:26:11.778Z,15.60
2019-05-26T08:28:40.404Z,15.70
2019-05-26T08:31:09.103Z,15.70
2019-05-26T08:33:38.002Z,15.90
2019-05-26T08:36:06.620Z,15.90
2019-05-26T08:38:35.233Z,15.90
2019-05-26T08:41:04.165Z,15.90
2019-05-26T08:43:33.173Z,15.80
2019-05-26T08:46:02.968Z,15.90
2019-05-26T08:48:31.652Z,15.90
2019-05-26T08:51:00.237Z,16.00
2019-05-26T08:53:28.846Z,16.00
2019-05-26T08:55:57.772Z,15.80
2019-05-26T08:58:29.353Z,15.70
2019-05-26T09:00:57.216Z,15.70
2019-05-26T09:03:26.218Z,15.60
2019-05-26T09:05:54.799Z,15.60
2019-05-26T09:08:23.705Z,15.50
2019-05-26T09:10:52.622Z,15.50
2019-05-26T09:13:21.749Z,15.50
2019-05-26T09:15:50.657Z,15.50
2019-05-26T09:18:19.574Z,15.50
2019-05-26T09:20:48.492Z,15.60
2019-05-26T09:23:17.064Z,15.60
2019-05-26T09:25:46.619Z,15.60
2019-05-26T09:28:15.483Z,15.70
2019-05-26T09:30:44.081Z,15.70
2019-05-26T09:33:12.991Z,15.80
2019-05-26T09:35:41.585Z,15.90
2019-05-26T09:38:10.545Z,15.90
2019-05-26T09:40:39.313Z,15.90
2019-05-26T09:43:16.298Z,15.80
2019-05-26T09:45:38.473Z,15.70
2019-05-26T09:48:07.105Z,15.70
2019-05-26T09:50:36.020Z,15.60
2019-05-26T09:53:04.933Z,15.60
2019-05-26T09:55:33.688Z,15.50
2019-05-26T09:58:02.571Z,15.50
2019-05-26T10:00:31.194Z,15.50
2019-05-26T10:03:00.234Z,15.60
2019-05-26T10:05:28.926Z,15.60
2019-05-26T10:07:57.974Z,15.60
2019-05-26T10:10:26.859Z,15.60
2019-05-26T10:12:55.775Z,15.50
2019-05-26T10:15:25.926Z,15.50
2019-05-26T10:17:54.763Z,15.50
2019-05-26T10:20:23.544Z,15.40
2019-05-26T10:22:52.181Z,15.20
2019-05-26T10:25:20.847Z,15.10
2019-05-26T10:27:49.853Z,15.10
2019-05-26T10:30:19.064Z,15.00
2019-05-26T10:32:47.742Z,15.00
2019-05-26T10:35:16.439Z,15.00
2019-05-26T10:37:45.212Z,15.00
2019-05-26T10:40:14.884Z,15.10
2019-05-26T10:42:43.745Z,15.10
2019-05-26T10:45:14.864Z,15.20
2019-05-26T10:47:43.592Z,15.20
2019-05-26T10:50:13.075Z,15.30
2019-05-26T10:52:41.752Z,15.40
2019-05-26T10:55:10.973Z,15.40
2019-05-26T10:57:40.049Z,15.40
2019-05-26T11:00:09.880Z,15.50
2019-05-26T11:02:38.637Z,15.50
2019-05-26T11:05:08.228Z,15.50
2019-05-26T11:07:36.998Z,15.50
2019-05-26T11:10:07.397Z,15.50
2019-05-26T11:12:36.270Z,15.60
2019-05-26T11:15:09.757Z,15.70
2019-05-26T11:17:38.487Z,15.80
2019-05-26T11:20:11.589Z,15.90
2019-05-26T11:22:40.736Z,16.00
2019-05-26T11:25:10.032Z,16.00
2019-05-26T11:27:38.874Z,16.10
2019-05-26T11:30:10.451Z,16.20
2019-05-26T11:32:39.619Z,16.40
2019-05-26T11:35:08.962Z,16.60
2019-05-26T11:37:37.715Z,16.80
2019-05-26T11:40:13.666Z,16.90
2019-05-26T11:42:44.937Z,17.10
2019-05-26T11:45:14.436Z,17.10
2019-05-26T11:47:43.735Z,17.20
2019-05-26T11:50:14.324Z,17.40
2019-05-26T11:52:43.424Z,17.60
2019-05-26T11:55:14.063Z,17.70
2019-05-26T11:57:43.135Z,17.80
2019-05-26T12:00:14.852Z,17.90
2019-05-26T12:02:45.143Z,17.90
2019-05-26T12:05:17.461Z,17.90
2019-05-26T12:07:44.837Z,18.00
2019-05-26T12:10:15.104Z,18.10
2019-05-26T12:12:43.824Z,18.10
2019-05-26T12:15:14.745Z,18.00
2019-05-26T12:17:43.378Z,18.10
2019-05-26T12:20:12.268Z,18.10
2019-05-26T12:22:40.957Z,18.20
2019-05-26T12:25:10.085Z,18.40
2019-05-26T12:27:38.760Z,18.60
2019-05-26T12:30:12.506Z,18.60
2019-05-26T12:32:41.130Z,18.70
2019-05-26T12:35:09.971Z,18.80
2019-05-26T12:37:38.750Z,18.90
2019-05-26T12:40:08.301Z,19.10
2019-05-26T12:42:37.220Z,19.20
2019-05-26T12:45:08.074Z,19.30
2019-05-26T12:47:36.790Z,19.40
2019-05-26T12:50:07.246Z,19.50
2019-05-26T12:52:36.207Z,19.60
2019-05-26T12:55:08.976Z,19.60
2019-05-26T12:57:36.835Z,19.50
2019-05-26T13:00:09.540Z,19.60
2019-05-26T13:02:38.277Z,19.70
2019-05-26T13:05:08.197Z,19.80
2019-05-26T13:07:37.039Z,19.90
2019-05-26T13:10:08.251Z,19.90
2019-05-26T13:12:36.872Z,19.90
2019-05-26T13:15:08.633Z,19.90
2019-05-26T13:17:37.228Z,19.80
2019-05-26T13:20:09.517Z,19.80
2019-05-26T13:22:39.769Z,19.70
2019-05-26T13:25:09.990Z,19.60
2019-05-26T13:27:38.717Z,19.50
2019-05-26T13:30:10.755Z,19.40
2019-05-26T13:32:39.357Z,19.30
2019-05-26T13:35:08.675Z,19.20
2019-05-26T13:37:37.368Z,19.30
2019-05-26T13:40:08.717Z,19.30
2019-05-26T13:42:37.773Z,19.50
2019-05-26T13:45:21.193Z,19.60
2019-05-26T13:47:37.930Z,19.80
2019-05-26T13:50:08.557Z,20.00
2019-05-26T13:52:37.318Z,20.10
2019-05-26T13:55:09.833Z,20.10
2019-05-26T13:57:38.761Z,20.10
2019-05-26T14:00:09.566Z,20.10
2019-05-26T14:02:38.391Z,20.10
2019-05-26T14:05:09.984Z,20.00
2019-05-26T14:07:38.670Z,20.00
2019-05-26T14:10:07.934Z,20.10
2019-05-26T14:12:37.056Z,20.10
2019-05-26T14:15:09.776Z,20.10
2019-05-26T14:17:39.632Z,20.00
2019-05-26T14:20:10.494Z,20.00
2019-05-26T14:22:39.063Z,19.90
2019-05-26T14:25:08.890Z,19.80
2019-05-26T14:27:37.580Z,19.80
2019-05-26T14:30:08.312Z,19.70
2019-05-26T14:32:37.101Z,19.70
2019-05-26T14:35:07.485Z,19.60
2019-05-26T14:37:36.588Z,19.60
2019-05-26T14:40:08.240Z,19.50
2019-05-26T14:42:36.929Z,19.40
2019-05-26T14:45:06.583Z,19.30
2019-05-26T14:47:35.268Z,19.30
2019-05-26T14:50:11.309Z,19.30
2019-05-26T14:52:39.966Z,19.30
2019-05-26T14:55:09.294Z,19.30
2019-05-26T14:57:38.688Z,19.40
2019-05-26T15:00:08.465Z,19.50
2019-05-26T15:02:37.555Z,19.60
2019-05-26T15:05:07.778Z,19.60
2019-05-26T15:07:37.146Z,19.70
2019-05-26T15:10:07.606Z,19.70
2019-05-26T15:12:37.198Z,19.60
2019-05-26T15:15:07.957Z,19.60
2019-05-26T15:17:37.606Z,19.60
2019-05-26T15:20:07.946Z,19.50
2019-05-26T15:22:37.640Z,19.50
2019-05-26T15:25:07.745Z,19.50
2019-05-26T15:27:37.762Z,19.60
2019-05-26T15:30:09.167Z,19.60
2019-05-26T15:32:37.911Z,19.70
2019-05-26T15:35:07.738Z,19.70
2019-05-26T15:37:36.491Z,19.70
2019-05-26T15:40:09.828Z,19.80
2019-05-26T15:42:38.516Z,19.80
2019-05-26T15:45:08.575Z,19.80
2019-05-26T15:47:38.084Z,19.80
2019-05-26T15:50:07.934Z,19.80
2019-05-26T15:52:36.691Z,19.80
2019-05-26T15:55:05.892Z,19.80
2019-05-26T15:57:34.569Z,19.80
2019-05-26T16:00:05.041Z,19.80
2019-05-26T16:02:33.840Z,19.80
2019-05-26T16:05:02.787Z,19.80
2019-05-26T16:07:31.414Z,19.70
2019-05-26T16:09:59.996Z,19.70
2019-05-26T16:12:28.576Z,19.70
2019-05-26T16:14:57.212Z,19.70
2019-05-26T16:17:26.242Z,19.80
2019-05-26T16:19:54.866Z,19.80
2019-05-26T16:22:23.564Z,19.70
2019-05-26T16:24:52.237Z,19.60
2019-05-26T16:27:21.193Z,19.60
2019-05-26T16:29:49.858Z,19.50
2019-05-26T16:32:19.108Z,19.40
2019-05-26T16:34:47.721Z,19.40
2019-05-26T16:37:16.477Z,19.30
2019-05-26T16:39:45.117Z,19.30
2019-05-26T16:42:13.810Z,19.20
2019-05-26T16:44:42.674Z,19.10
2019-05-26T16:47:11.386Z,19.10
2019-05-26T16:49:40.047Z,19.10
2019-05-26T16:52:09.289Z,19.00
2019-05-26T16:54:38.849Z,18.90
2019-05-26T16:57:07.800Z,18.90
2019-05-26T16:59:36.438Z,18.80
2019-05-26T17:02:05.173Z,18.80
2019-05-26T17:04:33.956Z,18.80
2019-05-26T17:07:03.086Z,18.70
2019-05-26T17:09:31.719Z,18.60
2019-05-26T17:12:00.666Z,18.50
2019-05-26T17:14:29.539Z,18.40
2019-05-26T17:17:13.663Z,18.40
2019-05-26T17:19:28.869Z,18.30
2019-05-26T17:21:57.618Z,18.20
2019-05-26T17:24:26.824Z,18.10
2019-05-26T17:26:55.777Z,18.00
2019-05-26T17:29:24.732Z,17.90
2019-05-26T17:31:53.722Z,17.80
2019-05-26T17:34:22.478Z,17.70
2019-05-26T17:36:51.263Z,17.60
2019-05-26T17:39:21.513Z,17.50
2019-05-26T17:41:50.585Z,17.50
2019-05-26T17:44:19.166Z,17.40
2019-05-26T17:46:47.817Z,17.40
2019-05-26T17:49:16.399Z,17.30
2019-05-26T17:51:45.034Z,17.20
2019-05-26T17:54:13.668Z,17.10
2019-05-26T17:56:42.357Z,17.10
2019-05-26T17:59:11.552Z,17.00
2019-05-26T18:01:40.298Z,16.90
2019-05-26T18:04:09.920Z,16.90
2019-05-26T18:06:38.712Z,16.90
2019-05-26T18:09:08.433Z,16.80
2019-05-26T18:11:37.241Z,16.70
2019-05-26T18:14:06.417Z,16.60
2019-05-26T18:16:35.073Z,16.60
2019-05-26T18:19:03.934Z,16.50
2019-05-26T18:21:32.727Z,16.50
2019-05-26T18:24:01.337Z,16.40
2019-05-26T18:26:30.052Z,16.30
2019-05-26T18:28:59.014Z,16.30
2019-05-26T18:31:29.074Z,16.20
2019-05-26T18:33:58.196Z,16.20
2019-05-26T18:36:27.322Z,16.10
2019-05-26T18:38:56.067Z,16.10
2019-05-26T18:41:24.882Z,16.10
2019-05-26T18:43:53.595Z,16.00
2019-05-26T18:46:22.369Z,16.00
2019-05-26T18:48:51.116Z,15.90
2019-05-26T18:51:19.831Z,15.90
2019-05-26T18:53:49.192Z,15.90
2019-05-26T18:56:18.394Z,15.90
2019-05-26T18:58:47.406Z,15.90
2019-05-26T19:01:16.180Z,15.80
2019-05-26T19:03:45.111Z,15.80
2019-05-26T19:06:14.037Z,15.60
2019-05-26T19:08:42.800Z,15.60
2019-05-26T19:11:11.736Z,15.60
2019-05-26T19:13:41.183Z,15.50
2019-05-26T19:16:09.946Z,15.50
2019-05-26T19:18:38.977Z,15.40
2019-05-26T19:21:08.138Z,15.40
2019-05-26T19:23:36.974Z,15.30
2019-05-26T19:26:06.686Z,15.30
2019-05-26T19:28:35.257Z,15.30
2019-05-26T19:31:04.135Z,15.30
2019-05-26T19:33:32.962Z,15.30
2019-05-26T19:36:01.935Z,15.20
2019-05-26T19:38:31.169Z,15.20
2019-05-26T19:41:00.076Z,15.20
2019-05-26T19:43:29.024Z,15.20
2019-05-26T19:45:57.629Z,15.20
2019-05-26T19:48:35.653Z,15.20
2019-05-26T19:50:57.105Z,15.20
2019-05-26T19:53:25.750Z,15.20
2019-05-26T19:55:54.457Z,15.20
2019-05-26T19:58:23.028Z,15.20
2019-05-26T20:00:51.761Z,15.10
2019-05-26T20:03:20.566Z,15.20
2019-05-26T20:05:49.463Z,15.20
2019-05-26T20:08:18.377Z,15.20
2019-05-26T20:10:47.076Z,15.20
2019-05-26T20:13:16.533Z,15.20
2019-05-26T20:15:46.246Z,15.20
2019-05-26T20:18:15.441Z,15.20
2019-05-26T20:20:44.481Z,15.20
2019-05-26T20:23:13.333Z,15.30
2019-05-26T20:25:42.009Z,15.30
2019-05-26T20:28:10.643Z,15.30
2019-05-26T20:30:39.229Z,15.30
2019-05-26T20:33:07.865Z,15.30
2019-05-26T20:35:36.497Z,15.30
2019-05-26T20:38:05.484Z,15.30
2019-05-26T20:40:34.245Z,15.30
2019-05-26T20:43:02.847Z,15.30
2019-05-26T20:45:31.540Z,15.30
2019-05-26T20:48:00.136Z,15.30
2019-05-26T20:50:29.874Z,15.30
2019-05-26T20:52:58.999Z,15.30
2019-05-26T20:55:27.568Z,15.30
2019-05-26T20:57:56.481Z,15.30
2019-05-26T21:00:25.216Z,15.30
2019-05-26T21:02:53.807Z,15.30
2019-05-26T21:05:22.436Z,15.30
2019-05-26T21:07:51.845Z,15.30
2019-05-26T21:10:20.600Z,15.30
2019-05-26T21:12:49.726Z,15.30
2019-05-26T21:15:18.552Z,15.20
2019-05-26T21:17:47.177Z,15.30
2019-05-26T21:20:16.658Z,15.20
2019-05-26T21:22:45.562Z,15.30
2019-05-26T21:25:14.343Z,15.30
2019-05-26T21:27:43.610Z,15.20
2019-05-26T21:30:12.531Z,15.20
2019-05-26T21:32:41.435Z,15.30
2019-05-26T21:35:10.266Z,15.30
2019-05-26T21:37:38.864Z,15.30
2019-05-26T21:40:10.883Z,15.30
2019-05-26T21:42:39.473Z,15.30
2019-05-26T21:45:09.778Z,15.30
2019-05-26T21:47:38.770Z,15.30
2019-05-26T21:50:08.969Z,15.30
2019-05-26T21:52:37.627Z,15.30
2019-05-26T21:55:07.001Z,15.40
2019-05-26T21:57:35.669Z,15.40
2019-05-26T22:00:11.165Z,15.40
2019-05-26T22:02:39.820Z,15.40
2019-05-26T22:05:08.781Z,15.40
2019-05-26T22:07:37.469Z,15.40
2019-05-26T22:10:06.993Z,15.40
2019-05-26T22:12:35.586Z,15.40
2019-05-26T22:15:06.925Z,15.40
2019-05-26T22:17:35.485Z,15.40
2019-05-26T22:20:05.601Z,15.30
2019-05-26T22:22:34.234Z,15.30
2019-05-26T22:25:02.886Z,15.30
2019-05-26T22:27:31.779Z,15.20
2019-05-26T22:30:00.420Z,15.20
2019-05-26T22:32:29.008Z,15.10
2019-05-26T22:34:57.622Z,15.10
2019-05-26T22:37:26.209Z,15.00
2019-05-26T22:39:54.799Z,15.00
2019-05-26T22:42:23.420Z,15.00
2019-05-26T22:44:52.003Z,14.90
2019-05-26T22:47:20.740Z,15.00
2019-05-26T22:49:49.298Z,14.90
2019-05-26T22:52:18.076Z,14.80
2019-05-26T22:54:47.522Z,14.80
2019-05-26T22:57:16.427Z,14.80
2019-05-26T22:59:44.997Z,14.80
2019-05-26T23:02:13.612Z,14.70
2019-05-26T23:04:42.469Z,14.80
2019-05-26T23:07:11.101Z,14.70
2019-05-26T23:09:39.683Z,14.70
2019-05-26T23:12:08.373Z,14.70
2019-05-26T23:14:36.994Z,14.70
2019-05-26T23:17:05.717Z,14.60
2019-05-26T23:19:34.332Z,14.60
2019-05-26T23:22:03.055Z,14.60
2019-05-26T23:24:31.825Z,14.50
2019-05-26T23:27:00.781Z,14.70
2019-05-26T23:29:29.402Z,14.70
2019-05-26T23:31:58.007Z,14.70
2019-05-26T23:34:26.621Z,14.60
2019-05-26T23:36:55.200Z,14.60
2019-05-26T23:39:24.069Z,14.70
2019-05-26T23:41:52.690Z,14.70
2019-05-26T23:44:21.275Z,14.60
2019-05-26T23:46:50.225Z,14.60
2019-05-26T23:49:19.396Z,14.40
2019-05-26T23:51:48.158Z,14.60
2019-05-26T23:54:17.060Z,14.60
2019-05-26T23:56:45.952Z,14.60
2019-05-26T23:59:14.584Z,14.60
